sensor_id;sensor_type;location;lat;lon;timestamp;temperature;humidity
8633;DHT22;4354;49.832;10.746;2023-04-25T00:01:38;8.50;1.00
8633;DHT22;4354;49.832;10.746;2023-04-25T00:04:05;8.40;61.70
8633;DHT22;4354;49.832;10.746;2023-04-25T00:06:35;8.40;1.00
8633;DHT22;4354;49.832;10.746;2023-04-25T00:09:04;8.30;1.00
8633;DHT22;4354;49.832;10.746;2023-04-25T00:11:34;8.40;99.90
8633;DHT22;4354;49.832;10.746;2023-04-25T00:14:00;8.30;99.90
8633;DHT22;4354;49.832;10.746;2023-04-25T00:16:29;8.30;1.00
8633;DHT22;4354;49.832;10.746;2023-04-25T00:19:00;8.30;1.00
8633;DHT22;4354;49.832;10.746;2023-04-25T00:21:30;8.40;1.00
8633;DHT22;4354;49.832;10.746;2023-04-25T00:23:58;8.30;1.00
8633;DHT22;4354;49.832;10.746;2023-04-25T00:26:26;8.40;1.00
8633;DHT22;4354;49.832;10.746;2023-04-25T00:28:53;8.40;1.00
8633;DHT22;4354;49.832;10.746;2023-04-25T00:31:20;8.40;1.00
8633;DHT22;4354;49.832;10.746;2023-04-25T00:33:47;8.30;99.90
8633;DHT22;4354;49.832;10.746;2023-04-25T00:36:15;8.40;1.00
8633;DHT22;4354;49.832;10.746;2023-04-25T00:38:41;8.40;1.00
8633;DHT22;4354;49.832;10.746;2023-04-25T00:41:08;8.40;1.00
8633;DHT22;4354;49.832;10.746;2023-04-25T00:43:36;8.40;1.00
8633;DHT22;4354;49.832;10.746;2023-04-25T00:46:04;8.40;1.00
8633;DHT22;4354;49.832;10.746;2023-04-25T00:48:31;8.40;1.00
8633;DHT22;4354;49.832;10.746;2023-04-25T00:50:59;8.40;1.00
8633;DHT22;4354;49.832;10.746;2023-04-25T00:53:28;8.40;1.00
8633;DHT22;4354;49.832;10.746;2023-04-25T00:55:55;8.40;99.90
8633;DHT22;4354;49.832;10.746;2023-04-25T00:58:22;8.40;1.00
8633;DHT22;4354;49.832;10.746;2023-04-25T01:00:51;8.40;1.00
8633;DHT22;4354;49.832;10.746;2023-04-25T01:03:19;8.40;1.00
8633;DHT22;4354;49.832;10.746;2023-04-25T01:05:50;8.40;1.00
8633;DHT22;4354;49.832;10.746;2023-04-25T01:08:17;8.30;99.90
8633;DHT22;4354;49.832;10.746;2023-04-25T01:10:44;8.30;1.00
8633;DHT22;4354;49.832;10.746;2023-04-25T01:13:10;8.30;1.00
8633;DHT22;4354;49.832;10.746;2023-04-25T01:15:37;8.30;1.00
8633;DHT22;4354;49.832;10.746;2023-04-25T01:18:05;8.30;1.00
8633;DHT22;4354;49.832;10.746;2023-04-25T01:20:33;8.30;1.00
8633;DHT22;4354;49.832;10.746;2023-04-25T01:23:01;8.40;1.00
8633;DHT22;4354;49.832;10.746;2023-04-25T01:25:30;8.30;99.90
8633;DHT22;4354;49.832;10.746;2023-04-25T01:27:58;8.30;1.00
8633;DHT22;4354;49.832;10.746;2023-04-25T01:30:28;8.30;99.90
8633;DHT22;4354;49.832;10.746;2023-04-25T01:32:56;8.40;1.00
8633;DHT22;4354;49.832;10.746;2023-04-25T01:35:24;8.40;74.40
8633;DHT22;4354;49.832;10.746;2023-04-25T01:37:53;8.40;1.00
8633;DHT22;4354;49.832;10.746;2023-04-25T01:40:21;8.30;1.00
8633;DHT22;4354;49.832;10.746;2023-04-25T01:42:49;8.30;1.00
8633;DHT22;4354;49.832;10.746;2023-04-25T01:45:17;8.20;1.00
8633;DHT22;4354;49.832;10.746;2023-04-25T01:47:44;8.10;1.00
8633;DHT22;4354;49.832;10.746;2023-04-25T01:50:18;8.10;1.00
8633;DHT22;4354;49.832;10.746;2023-04-25T01:52:45;8.10;1.00
8633;DHT22;4354;49.832;10.746;2023-04-25T01:55:12;8.00;1.00
8633;DHT22;4354;49.832;10.746;2023-04-25T01:57:38;7.90;1.00
8633;DHT22;4354;49.832;10.746;2023-04-25T02:00:06;8.00;1.00
8633;DHT22;4354;49.832;10.746;2023-04-25T02:02:35;7.90;1.00
8633;DHT22;4354;49.832;10.746;2023-04-25T02:05:02;7.90;1.00
8633;DHT22;4354;49.832;10.746;2023-04-25T02:07:29;7.90;1.00
8633;DHT22;4354;49.832;10.746;2023-04-25T02:09:55;7.90;1.00
8633;DHT22;4354;49.832;10.746;2023-04-25T02:12:22;7.90;1.00
8633;DHT22;4354;49.832;10.746;2023-04-25T02:14:49;7.80;1.00
8633;DHT22;4354;49.832;10.746;2023-04-25T02:17:16;7.80;1.00
8633;DHT22;4354;49.832;10.746;2023-04-25T02:19:43;7.80;1.00
8633;DHT22;4354;49.832;10.746;2023-04-25T02:22:10;7.80;1.00
8633;DHT22;4354;49.832;10.746;2023-04-25T02:24:37;7.70;1.00
8633;DHT22;4354;49.832;10.746;2023-04-25T02:27:04;7.70;1.00
8633;DHT22;4354;49.832;10.746;2023-04-25T02:29:31;7.70;1.00
8633;DHT22;4354;49.832;10.746;2023-04-25T02:31:57;7.80;1.00
8633;DHT22;4354;49.832;10.746;2023-04-25T02:34:24;7.80;1.00
8633;DHT22;4354;49.832;10.746;2023-04-25T02:36:51;7.80;1.00
8633;DHT22;4354;49.832;10.746;2023-04-25T02:39:18;7.80;1.00
8633;DHT22;4354;49.832;10.746;2023-04-25T02:41:45;7.80;1.00
8633;DHT22;4354;49.832;10.746;2023-04-25T02:44:12;7.80;1.00
8633;DHT22;4354;49.832;10.746;2023-04-25T02:46:38;7.80;1.00
8633;DHT22;4354;49.832;10.746;2023-04-25T02:49:06;7.80;1.00
8633;DHT22;4354;49.832;10.746;2023-04-25T02:51:33;7.90;1.00
8633;DHT22;4354;49.832;10.746;2023-04-25T02:53:59;7.90;1.00
8633;DHT22;4354;49.832;10.746;2023-04-25T02:56:26;7.90;1.00
8633;DHT22;4354;49.832;10.746;2023-04-25T02:58:53;7.90;1.00
8633;DHT22;4354;49.832;10.746;2023-04-25T03:01:20;8.00;1.00
8633;DHT22;4354;49.832;10.746;2023-04-25T03:03:47;8.00;1.00
8633;DHT22;4354;49.832;10.746;2023-04-25T03:06:15;8.00;1.00
8633;DHT22;4354;49.832;10.746;2023-04-25T03:08:42;8.00;1.00
8633;DHT22;4354;49.832;10.746;2023-04-25T03:11:09;8.00;1.00
8633;DHT22;4354;49.832;10.746;2023-04-25T03:13:37;8.00;1.00
8633;DHT22;4354;49.832;10.746;2023-04-25T03:16:04;8.10;1.00
8633;DHT22;4354;49.832;10.746;2023-04-25T03:18:31;8.10;1.00
8633;DHT22;4354;49.832;10.746;2023-04-25T03:20:57;8.10;1.00
8633;DHT22;4354;49.832;10.746;2023-04-25T03:23:24;8.10;1.00
8633;DHT22;4354;49.832;10.746;2023-04-25T03:25:52;8.10;1.00
8633;DHT22;4354;49.832;10.746;2023-04-25T03:28:19;8.00;1.00
8633;DHT22;4354;49.832;10.746;2023-04-25T03:30:46;8.00;1.00
8633;DHT22;4354;49.832;10.746;2023-04-25T03:33:13;8.00;1.00
8633;DHT22;4354;49.832;10.746;2023-04-25T03:35:43;8.00;1.00
8633;DHT22;4354;49.832;10.746;2023-04-25T03:38:10;8.00;1.00
8633;DHT22;4354;49.832;10.746;2023-04-25T03:40:36;8.00;1.00
8633;DHT22;4354;49.832;10.746;2023-04-25T03:43:03;8.00;1.00
8633;DHT22;4354;49.832;10.746;2023-04-25T03:45:31;8.10;1.00
8633;DHT22;4354;49.832;10.746;2023-04-25T03:47:58;8.00;1.00
8633;DHT22;4354;49.832;10.746;2023-04-25T03:50:25;8.00;1.00
8633;DHT22;4354;49.832;10.746;2023-04-25T03:52:52;8.00;1.00
8633;DHT22;4354;49.832;10.746;2023-04-25T03:55:18;7.90;1.00
8633;DHT22;4354;49.832;10.746;2023-04-25T03:57:45;7.90;1.00
8633;DHT22;4354;49.832;10.746;2023-04-25T04:00:13;7.80;1.00
8633;DHT22;4354;49.832;10.746;2023-04-25T04:02:40;7.90;1.00
8633;DHT22;4354;49.832;10.746;2023-04-25T04:05:10;7.80;1.00
8633;DHT22;4354;49.832;10.746;2023-04-25T04:07:37;7.80;1.00
8633;DHT22;4354;49.832;10.746;2023-04-25T04:10:07;7.80;1.00
8633;DHT22;4354;49.832;10.746;2023-04-25T04:12:34;7.80;1.00
8633;DHT22;4354;49.832;10.746;2023-04-25T04:15:02;7.60;1.00
8633;DHT22;4354;49.832;10.746;2023-04-25T04:17:30;7.60;1.00
8633;DHT22;4354;49.832;10.746;2023-04-25T04:19:57;7.60;1.00
8633;DHT22;4354;49.832;10.746;2023-04-25T04:22:24;7.60;1.00
8633;DHT22;4354;49.832;10.746;2023-04-25T04:24:51;7.60;1.00
8633;DHT22;4354;49.832;10.746;2023-04-25T04:27:18;7.50;1.00
8633;DHT22;4354;49.832;10.746;2023-04-25T04:29:46;7.50;1.00
8633;DHT22;4354;49.832;10.746;2023-04-25T04:32:14;7.50;1.00
8633;DHT22;4354;49.832;10.746;2023-04-25T04:34:40;7.50;1.00
8633;DHT22;4354;49.832;10.746;2023-04-25T04:37:07;7.50;1.00
8633;DHT22;4354;49.832;10.746;2023-04-25T04:39:34;7.50;1.00
8633;DHT22;4354;49.832;10.746;2023-04-25T04:42:01;7.50;1.00
8633;DHT22;4354;49.832;10.746;2023-04-25T04:44:30;7.50;1.00
8633;DHT22;4354;49.832;10.746;2023-04-25T04:46:59;7.50;1.00
8633;DHT22;4354;49.832;10.746;2023-04-25T04:49:26;7.50;1.00
8633;DHT22;4354;49.832;10.746;2023-04-25T04:51:53;7.50;1.00
8633;DHT22;4354;49.832;10.746;2023-04-25T04:54:23;7.50;1.00
8633;DHT22;4354;49.832;10.746;2023-04-25T04:56:51;7.50;1.00
8633;DHT22;4354;49.832;10.746;2023-04-25T04:59:19;7.50;1.00
8633;DHT22;4354;49.832;10.746;2023-04-25T05:01:46;7.60;1.00
8633;DHT22;4354;49.832;10.746;2023-04-25T05:04:13;7.60;1.00
8633;DHT22;4354;49.832;10.746;2023-04-25T05:06:40;7.60;1.00
8633;DHT22;4354;49.832;10.746;2023-04-25T05:09:07;7.60;1.00
8633;DHT22;4354;49.832;10.746;2023-04-25T05:11:34;7.60;1.00
8633;DHT22;4354;49.832;10.746;2023-04-25T05:14:00;7.70;1.00
8633;DHT22;4354;49.832;10.746;2023-04-25T05:16:27;7.70;1.00
8633;DHT22;4354;49.832;10.746;2023-04-25T05:18:54;7.70;1.00
8633;DHT22;4354;49.832;10.746;2023-04-25T05:21:21;7.70;1.00
8633;DHT22;4354;49.832;10.746;2023-04-25T05:23:48;7.70;1.00
8633;DHT22;4354;49.832;10.746;2023-04-25T05:26:16;7.80;1.00
8633;DHT22;4354;49.832;10.746;2023-04-25T05:28:43;7.80;1.00
8633;DHT22;4354;49.832;10.746;2023-04-25T05:31:10;7.80;1.00
8633;DHT22;4354;49.832;10.746;2023-04-25T05:33:37;7.80;1.00
8633;DHT22;4354;49.832;10.746;2023-04-25T05:36:04;7.80;1.00
8633;DHT22;4354;49.832;10.746;2023-04-25T05:38:31;7.80;1.00
8633;DHT22;4354;49.832;10.746;2023-04-25T05:41:00;7.90;1.00
8633;DHT22;4354;49.832;10.746;2023-04-25T05:43:27;8.00;1.00
8633;DHT22;4354;49.832;10.746;2023-04-25T05:45:54;8.00;1.00
8633;DHT22;4354;49.832;10.746;2023-04-25T05:48:21;8.10;1.00
8633;DHT22;4354;49.832;10.746;2023-04-25T05:50:47;8.20;1.00
8633;DHT22;4354;49.832;10.746;2023-04-25T05:53:14;8.20;1.00
8633;DHT22;4354;49.832;10.746;2023-04-25T05:55:41;8.30;1.00
8633;DHT22;4354;49.832;10.746;2023-04-25T05:58:08;8.30;1.00
8633;DHT22;4354;49.832;10.746;2023-04-25T06:00:34;8.40;1.00
8633;DHT22;4354;49.832;10.746;2023-04-25T06:03:01;8.40;99.90
8633;DHT22;4354;49.832;10.746;2023-04-25T06:05:29;8.50;99.90
8633;DHT22;4354;49.832;10.746;2023-04-25T06:07:56;8.50;99.90
8633;DHT22;4354;49.832;10.746;2023-04-25T06:10:23;8.60;1.00
8633;DHT22;4354;49.832;10.746;2023-04-25T06:12:49;8.60;76.70
8633;DHT22;4354;49.832;10.746;2023-04-25T06:15:16;8.70;1.00
8633;DHT22;4354;49.832;10.746;2023-04-25T06:17:54;8.70;1.00
8633;DHT22;4354;49.832;10.746;2023-04-25T06:20:22;8.70;99.90
8633;DHT22;4354;49.832;10.746;2023-04-25T06:22:51;8.80;1.00
8633;DHT22;4354;49.832;10.746;2023-04-25T06:25:18;8.90;90.20
8633;DHT22;4354;49.832;10.746;2023-04-25T06:27:45;9.10;1.00
8633;DHT22;4354;49.832;10.746;2023-04-25T06:30:12;9.20;99.90
8633;DHT22;4354;49.832;10.746;2023-04-25T06:32:39;9.30;99.90
8633;DHT22;4354;49.832;10.746;2023-04-25T06:35:06;9.40;1.00
8633;DHT22;4354;49.832;10.746;2023-04-25T06:37:33;9.50;1.00
8633;DHT22;4354;49.832;10.746;2023-04-25T06:40:00;9.60;1.00
8633;DHT22;4354;49.832;10.746;2023-04-25T06:42:27;9.50;86.90
8633;DHT22;4354;49.832;10.746;2023-04-25T06:44:54;9.50;1.00
8633;DHT22;4354;49.832;10.746;2023-04-25T06:47:21;9.60;1.00
8633;DHT22;4354;49.832;10.746;2023-04-25T06:49:47;9.70;99.90
8633;DHT22;4354;49.832;10.746;2023-04-25T06:52:14;9.70;1.00
8633;DHT22;4354;49.832;10.746;2023-04-25T06:54:41;9.90;1.00
8633;DHT22;4354;49.832;10.746;2023-04-25T06:57:08;10.00;99.90
8633;DHT22;4354;49.832;10.746;2023-04-25T06:59:34;10.20;99.90
8633;DHT22;4354;49.832;10.746;2023-04-25T07:02:01;10.40;1.00
8633;DHT22;4354;49.832;10.746;2023-04-25T07:04:28;10.20;1.00
8633;DHT22;4354;49.832;10.746;2023-04-25T07:06:56;10.20;1.00
8633;DHT22;4354;49.832;10.746;2023-04-25T07:09:22;10.10;1.00
8633;DHT22;4354;49.832;10.746;2023-04-25T07:11:49;10.20;99.90
8633;DHT22;4354;49.832;10.746;2023-04-25T07:14:16;10.20;1.00
8633;DHT22;4354;49.832;10.746;2023-04-25T07:16:43;10.40;1.00
8633;DHT22;4354;49.832;10.746;2023-04-25T07:19:10;10.60;1.00
8633;DHT22;4354;49.832;10.746;2023-04-25T07:21:36;10.80;1.00
8633;DHT22;4354;49.832;10.746;2023-04-25T07:24:03;10.80;1.00
8633;DHT22;4354;49.832;10.746;2023-04-25T07:26:30;10.90;1.00
8633;DHT22;4354;49.832;10.746;2023-04-25T07:28:57;11.90;1.00
8633;DHT22;4354;49.832;10.746;2023-04-25T07:31:24;13.70;1.00
8633;DHT22;4354;49.832;10.746;2023-04-25T07:33:51;15.50;99.90
8633;DHT22;4354;49.832;10.746;2023-04-25T07:36:17;16.80;99.90
8633;DHT22;4354;49.832;10.746;2023-04-25T07:38:44;17.60;99.90
8633;DHT22;4354;49.832;10.746;2023-04-25T07:41:11;18.80;99.90
8633;DHT22;4354;49.832;10.746;2023-04-25T07:43:38;19.90;99.50
8633;DHT22;4354;49.832;10.746;2023-04-25T07:46:05;21.40;85.10
8633;DHT22;4354;49.832;10.746;2023-04-25T07:48:32;21.80;63.70
8633;DHT22;4354;49.832;10.746;2023-04-25T07:50:58;22.00;52.00
8633;DHT22;4354;49.832;10.746;2023-04-25T07:53:25;23.70;43.20
8633;DHT22;4354;49.832;10.746;2023-04-25T07:55:52;24.50;28.40
8633;DHT22;4354;49.832;10.746;2023-04-25T07:58:19;23.70;26.60
8633;DHT22;4354;49.832;10.746;2023-04-25T08:00:48;22.10;26.00
8633;DHT22;4354;49.832;10.746;2023-04-25T08:03:15;19.90;29.40
8633;DHT22;4354;49.832;10.746;2023-04-25T08:05:42;19.30;41.00
8633;DHT22;4354;49.832;10.746;2023-04-25T08:08:10;20.60;36.50
8633;DHT22;4354;49.832;10.746;2023-04-25T08:10:36;22.60;30.20
8633;DHT22;4354;49.832;10.746;2023-04-25T08:13:03;24.10;22.80
8633;DHT22;4354;49.832;10.746;2023-04-25T08:15:30;24.30;17.00
8633;DHT22;4354;49.832;10.746;2023-04-25T08:17:57;24.10;14.40
8633;DHT22;4354;49.832;10.746;2023-04-25T08:20:24;25.10;11.30
8633;DHT22;4354;49.832;10.746;2023-04-25T08:22:51;26.40;4.50
8633;DHT22;4354;49.832;10.746;2023-04-25T08:25:18;27.50;1.00
8633;DHT22;4354;49.832;10.746;2023-04-25T08:27:45;28.50;1.00
8633;DHT22;4354;49.832;10.746;2023-04-25T08:30:12;28.30;1.00
8633;DHT22;4354;49.832;10.746;2023-04-25T08:32:39;29.10;1.00
8633;DHT22;4354;49.832;10.746;2023-04-25T08:35:06;28.60;1.00
8633;DHT22;4354;49.832;10.746;2023-04-25T08:37:33;28.40;1.00
8633;DHT22;4354;49.832;10.746;2023-04-25T08:40:00;28.80;1.00
8633;DHT22;4354;49.832;10.746;2023-04-25T08:42:27;29.40;1.00
8633;DHT22;4354;49.832;10.746;2023-04-25T08:44:55;29.20;1.00
8633;DHT22;4354;49.832;10.746;2023-04-25T08:47:22;27.80;1.00
8633;DHT22;4354;49.832;10.746;2023-04-25T08:49:52;25.00;1.00
8633;DHT22;4354;49.832;10.746;2023-04-25T08:52:23;23.80;1.00
8633;DHT22;4354;49.832;10.746;2023-04-25T08:54:51;23.60;1.00
8633;DHT22;4354;49.832;10.746;2023-04-25T08:57:19;25.20;1.00
8633;DHT22;4354;49.832;10.746;2023-04-25T08:59:47;25.30;1.00
8633;DHT22;4354;49.832;10.746;2023-04-25T09:02:15;26.30;1.00
8633;DHT22;4354;49.832;10.746;2023-04-25T09:04:44;27.10;1.00
8633;DHT22;4354;49.832;10.746;2023-04-25T09:07:12;27.30;1.00
8633;DHT22;4354;49.832;10.746;2023-04-25T09:09:38;25.70;1.00
8633;DHT22;4354;49.832;10.746;2023-04-25T09:12:06;25.70;1.00
8633;DHT22;4354;49.832;10.746;2023-04-25T09:14:33;26.00;1.00
8633;DHT22;4354;49.832;10.746;2023-04-25T09:17:01;25.70;1.00
8633;DHT22;4354;49.832;10.746;2023-04-25T09:19:30;25.60;1.00
8633;DHT22;4354;49.832;10.746;2023-04-25T09:22:07;25.50;1.00
8633;DHT22;4354;49.832;10.746;2023-04-25T09:24:42;25.20;1.00
8633;DHT22;4354;49.832;10.746;2023-04-25T09:27:11;24.00;1.00
8633;DHT22;4354;49.832;10.746;2023-04-25T09:29:39;22.50;1.00
8633;DHT22;4354;49.832;10.746;2023-04-25T09:32:23;20.70;1.00
8633;DHT22;4354;49.832;10.746;2023-04-25T09:34:55;18.90;1.00
8633;DHT22;4354;49.832;10.746;2023-04-25T09:37:26;17.70;1.20
8633;DHT22;4354;49.832;10.746;2023-04-25T09:39:55;18.00;7.80
8633;DHT22;4354;49.832;10.746;2023-04-25T09:42:24;19.50;4.70
8633;DHT22;4354;49.832;10.746;2023-04-25T09:44:53;21.40;1.00
8633;DHT22;4354;49.832;10.746;2023-04-25T09:47:23;21.60;1.00
8633;DHT22;4354;49.832;10.746;2023-04-25T09:49:51;22.90;1.00
8633;DHT22;4354;49.832;10.746;2023-04-25T09:52:23;24.80;1.00
8633;DHT22;4354;49.832;10.746;2023-04-25T09:54:52;26.20;1.00
8633;DHT22;4354;49.832;10.746;2023-04-25T09:57:21;27.50;1.00
8633;DHT22;4354;49.832;10.746;2023-04-25T09:59:51;28.90;1.00
8633;DHT22;4354;49.832;10.746;2023-04-25T10:02:19;29.70;1.00
8633;DHT22;4354;49.832;10.746;2023-04-25T10:04:51;27.70;1.00
8633;DHT22;4354;49.832;10.746;2023-04-25T10:07:24;25.60;1.00
8633;DHT22;4354;49.832;10.746;2023-04-25T10:10:01;25.70;1.00
8633;DHT22;4354;49.832;10.746;2023-04-25T10:12:32;27.30;1.00
8633;DHT22;4354;49.832;10.746;2023-04-25T10:15:00;28.20;1.00
8633;DHT22;4354;49.832;10.746;2023-04-25T10:17:28;28.80;1.00
8633;DHT22;4354;49.832;10.746;2023-04-25T10:19:55;28.60;1.00
8633;DHT22;4354;49.832;10.746;2023-04-25T10:22:45;28.20;1.00
8633;DHT22;4354;49.832;10.746;2023-04-25T10:25:12;28.90;1.00
8633;DHT22;4354;49.832;10.746;2023-04-25T10:27:40;29.20;1.00
8633;DHT22;4354;49.832;10.746;2023-04-25T10:30:13;28.50;1.00
8633;DHT22;4354;49.832;10.746;2023-04-25T10:32:42;26.20;1.00
8633;DHT22;4354;49.832;10.746;2023-04-25T10:35:14;24.00;1.00
8633;DHT22;4354;49.832;10.746;2023-04-25T10:38:03;22.70;1.00
8633;DHT22;4354;49.832;10.746;2023-04-25T10:40:32;22.30;1.00
8633;DHT22;4354;49.832;10.746;2023-04-25T10:46:22;22.20;1.00
8633;DHT22;4354;49.832;10.746;2023-04-25T10:48:55;20.90;1.00
8633;DHT22;4354;49.832;10.746;2023-04-25T10:51:26;19.40;1.00
8633;DHT22;4354;49.832;10.746;2023-04-25T10:54:02;18.00;1.00
8633;DHT22;4354;49.832;10.746;2023-04-25T10:56:31;18.10;1.00
8633;DHT22;4354;49.832;10.746;2023-04-25T11:01:47;17.80;1.00
8633;DHT22;4354;49.832;10.746;2023-04-25T11:04:30;17.60;1.00
8633;DHT22;4354;49.832;10.746;2023-04-25T11:09:35;17.10;1.00
8633;DHT22;4354;49.832;10.746;2023-04-25T11:12:02;17.30;1.00
8633;DHT22;4354;49.832;10.746;2023-04-25T11:14:29;17.50;1.00
8633;DHT22;4354;49.832;10.746;2023-04-25T11:16:59;17.40;1.00
8633;DHT22;4354;49.832;10.746;2023-04-25T11:19:28;17.10;1.00
8633;DHT22;4354;49.832;10.746;2023-04-25T11:21:58;16.80;1.00
8633;DHT22;4354;49.832;10.746;2023-04-25T11:24:35;16.60;1.00
8633;DHT22;4354;49.832;10.746;2023-04-25T11:27:03;15.90;1.00
8633;DHT22;4354;49.832;10.746;2023-04-25T11:29:32;16.00;1.60
8633;DHT22;4354;49.832;10.746;2023-04-25T11:32:00;16.20;1.00
8633;DHT22;4354;49.832;10.746;2023-04-25T11:34:28;16.30;1.00
8633;DHT22;4354;49.832;10.746;2023-04-25T11:37:00;16.60;1.10
8633;DHT22;4354;49.832;10.746;2023-04-25T11:39:29;16.40;1.00
8633;DHT22;4354;49.832;10.746;2023-04-25T11:41:56;16.70;1.00
8633;DHT22;4354;49.832;10.746;2023-04-25T11:44:23;16.50;1.00
8633;DHT22;4354;49.832;10.746;2023-04-25T11:46:50;16.40;1.00
8633;DHT22;4354;49.832;10.746;2023-04-25T11:49:16;16.00;1.00
8633;DHT22;4354;49.832;10.746;2023-04-25T11:51:48;16.00;1.30
8633;DHT22;4354;49.832;10.746;2023-04-25T11:54:15;16.00;1.00
8633;DHT22;4354;49.832;10.746;2023-04-25T11:56:43;16.00;1.00
8633;DHT22;4354;49.832;10.746;2023-04-25T11:59:10;15.80;2.70
8633;DHT22;4354;49.832;10.746;2023-04-25T12:01:40;15.70;3.00
8633;DHT22;4354;49.832;10.746;2023-04-25T12:06:46;16.50;1.60
8633;DHT22;4354;49.832;10.746;2023-04-25T12:09:27;16.90;19.20
8633;DHT22;4354;49.832;10.746;2023-04-25T12:11:56;16.90;1.00
8633;DHT22;4354;49.832;10.746;2023-04-25T12:16:56;16.10;1.00
8633;DHT22;4354;49.832;10.746;2023-04-25T12:19:35;15.40;2.40
8633;DHT22;4354;49.832;10.746;2023-04-25T12:22:03;14.90;5.10
8633;DHT22;4354;49.832;10.746;2023-04-25T12:24:33;14.40;6.50
8633;DHT22;4354;49.832;10.746;2023-04-25T12:27:06;13.90;8.80
8633;DHT22;4354;49.832;10.746;2023-04-25T12:29:35;13.60;10.60
8633;DHT22;4354;49.832;10.746;2023-04-25T12:32:14;13.20;11.80
8633;DHT22;4354;49.832;10.746;2023-04-25T12:34:41;13.30;14.20
8633;DHT22;4354;49.832;10.746;2023-04-25T12:37:08;13.50;12.70
8633;DHT22;4354;49.832;10.746;2023-04-25T12:39:35;13.60;14.30
8633;DHT22;4354;49.832;10.746;2023-04-25T12:42:02;13.90;11.90
8633;DHT22;4354;49.832;10.746;2023-04-25T12:44:33;14.10;10.40
8633;DHT22;4354;49.832;10.746;2023-04-25T12:47:00;14.30;10.50
8633;DHT22;4354;49.832;10.746;2023-04-25T12:49:27;14.30;8.70
8633;DHT22;4354;49.832;10.746;2023-04-25T12:51:54;14.50;9.00
8633;DHT22;4354;49.832;10.746;2023-04-25T12:54:21;14.50;9.70
8633;DHT22;4354;49.832;10.746;2023-04-25T12:56:48;14.70;8.60
8633;DHT22;4354;49.832;10.746;2023-04-25T12:59:15;14.70;8.40
8633;DHT22;4354;49.832;10.746;2023-04-25T13:01:42;14.80;8.20
8633;DHT22;4354;49.832;10.746;2023-04-25T13:04:09;14.90;11.70
8633;DHT22;4354;49.832;10.746;2023-04-25T13:06:36;14.90;7.60
8633;DHT22;4354;49.832;10.746;2023-04-25T13:09:03;14.90;7.10
8633;DHT22;4354;49.832;10.746;2023-04-25T13:11:30;14.90;7.30
8633;DHT22;4354;49.832;10.746;2023-04-25T13:13:57;14.20;10.90
8633;DHT22;4354;49.832;10.746;2023-04-25T13:16:24;14.30;10.10
8633;DHT22;4354;49.832;10.746;2023-04-25T13:18:51;14.40;11.20
8633;DHT22;4354;49.832;10.746;2023-04-25T13:21:18;14.70;9.70
8633;DHT22;4354;49.832;10.746;2023-04-25T13:23:45;14.70;8.50
8633;DHT22;4354;49.832;10.746;2023-04-25T13:26:13;14.60;8.60
8633;DHT22;4354;49.832;10.746;2023-04-25T13:28:40;14.40;8.50
8633;DHT22;4354;49.832;10.746;2023-04-25T13:31:10;14.00;28.70
8633;DHT22;4354;49.832;10.746;2023-04-25T13:33:37;13.50;12.00
8633;DHT22;4354;49.832;10.746;2023-04-25T13:36:04;13.20;12.60
8633;DHT22;4354;49.832;10.746;2023-04-25T13:38:32;12.90;14.60
8633;DHT22;4354;49.832;10.746;2023-04-25T13:40:59;12.60;15.90
8633;DHT22;4354;49.832;10.746;2023-04-25T13:43:26;12.50;17.10
8633;DHT22;4354;49.832;10.746;2023-04-25T13:45:52;12.20;19.20
8633;DHT22;4354;49.832;10.746;2023-04-25T13:48:19;12.20;19.30
8633;DHT22;4354;49.832;10.746;2023-04-25T13:50:46;12.20;20.40
8633;DHT22;4354;49.832;10.746;2023-04-25T13:53:13;12.30;20.20
8633;DHT22;4354;49.832;10.746;2023-04-25T13:55:40;12.40;21.40
8633;DHT22;4354;49.832;10.746;2023-04-25T13:58:07;12.70;19.40
8633;DHT22;4354;49.832;10.746;2023-04-25T14:00:38;13.20;18.50
8633;DHT22;4354;49.832;10.746;2023-04-25T14:03:06;13.40;17.60
8633;DHT22;4354;49.832;10.746;2023-04-25T14:05:36;13.70;15.90
8633;DHT22;4354;49.832;10.746;2023-04-25T14:08:08;13.90;15.50
8633;DHT22;4354;49.832;10.746;2023-04-25T14:10:35;14.10;13.60
8633;DHT22;4354;49.832;10.746;2023-04-25T14:13:04;14.10;14.40
8633;DHT22;4354;49.832;10.746;2023-04-25T14:15:33;14.00;13.40
8633;DHT22;4354;49.832;10.746;2023-04-25T14:18:01;13.80;13.80
8633;DHT22;4354;49.832;10.746;2023-04-25T14:20:28;13.60;15.60
8633;DHT22;4354;49.832;10.746;2023-04-25T14:22:55;13.80;14.40
8633;DHT22;4354;49.832;10.746;2023-04-25T14:25:24;14.00;15.00
8633;DHT22;4354;49.832;10.746;2023-04-25T14:27:51;14.20;13.50
8633;DHT22;4354;49.832;10.746;2023-04-25T14:30:19;14.50;10.60
8633;DHT22;4354;49.832;10.746;2023-04-25T14:32:47;14.50;12.80
8633;DHT22;4354;49.832;10.746;2023-04-25T14:35:15;14.30;11.60
8633;DHT22;4354;49.832;10.746;2023-04-25T14:37:42;14.20;11.20
8633;DHT22;4354;49.832;10.746;2023-04-25T14:40:09;14.00;11.20
8633;DHT22;4354;49.832;10.746;2023-04-25T14:42:37;13.70;13.10
8633;DHT22;4354;49.832;10.746;2023-04-25T14:45:05;13.40;14.60
8633;DHT22;4354;49.832;10.746;2023-04-25T14:47:34;13.20;16.20
8633;DHT22;4354;49.832;10.746;2023-04-25T14:50:02;13.10;17.70
8633;DHT22;4354;49.832;10.746;2023-04-25T14:52:29;12.90;17.90
8633;DHT22;4354;49.832;10.746;2023-04-25T14:54:56;12.70;18.40
8633;DHT22;4354;49.832;10.746;2023-04-25T14:57:22;12.60;19.70
8633;DHT22;4354;49.832;10.746;2023-04-25T14:59:50;12.70;20.00
8633;DHT22;4354;49.832;10.746;2023-04-25T15:02:17;12.60;20.50
8633;DHT22;4354;49.832;10.746;2023-04-25T15:04:44;12.60;20.70
8633;DHT22;4354;49.832;10.746;2023-04-25T15:07:11;12.60;22.10
8633;DHT22;4354;49.832;10.746;2023-04-25T15:09:38;12.60;20.90
8633;DHT22;4354;49.832;10.746;2023-04-25T15:12:05;12.80;20.80
8633;DHT22;4354;49.832;10.746;2023-04-25T15:14:32;12.80;19.90
8633;DHT22;4354;49.832;10.746;2023-04-25T15:17:00;12.80;21.90
8633;DHT22;4354;49.832;10.746;2023-04-25T15:19:27;12.90;20.20
8633;DHT22;4354;49.832;10.746;2023-04-25T15:21:54;12.70;21.50
8633;DHT22;4354;49.832;10.746;2023-04-25T15:24:21;12.60;20.80
8633;DHT22;4354;49.832;10.746;2023-04-25T15:26:48;12.50;21.50
8633;DHT22;4354;49.832;10.746;2023-04-25T15:29:15;12.30;19.70
8633;DHT22;4354;49.832;10.746;2023-04-25T15:31:43;12.10;23.20
8633;DHT22;4354;49.832;10.746;2023-04-25T15:34:10;12.00;25.50
8633;DHT22;4354;49.832;10.746;2023-04-25T15:36:37;11.90;24.70
8633;DHT22;4354;49.832;10.746;2023-04-25T15:39:04;12.00;23.60
8633;DHT22;4354;49.832;10.746;2023-04-25T15:41:31;12.10;24.30
8633;DHT22;4354;49.832;10.746;2023-04-25T15:43:59;12.20;25.00
8633;DHT22;4354;49.832;10.746;2023-04-25T15:46:27;12.20;25.70
8633;DHT22;4354;49.832;10.746;2023-04-25T15:48:56;12.30;23.80
8633;DHT22;4354;49.832;10.746;2023-04-25T15:51:23;12.40;23.00
8633;DHT22;4354;49.832;10.746;2023-04-25T15:53:50;12.40;22.50
8633;DHT22;4354;49.832;10.746;2023-04-25T15:56:17;12.30;22.90
8633;DHT22;4354;49.832;10.746;2023-04-25T15:58:44;12.20;23.50
8633;DHT22;4354;49.832;10.746;2023-04-25T16:01:11;12.10;21.90
8633;DHT22;4354;49.832;10.746;2023-04-25T16:03:38;11.90;24.90
8633;DHT22;4354;49.832;10.746;2023-04-25T16:06:05;11.60;24.50
8633;DHT22;4354;49.832;10.746;2023-04-25T16:08:32;11.40;25.80
8633;DHT22;4354;49.832;10.746;2023-04-25T16:11:01;11.20;27.40
8633;DHT22;4354;49.832;10.746;2023-04-25T16:13:28;11.00;27.80
8633;DHT22;4354;49.832;10.746;2023-04-25T16:15:55;9.90;27.30
8633;DHT22;4354;49.832;10.746;2023-04-25T16:18:23;10.70;32.50
8633;DHT22;4354;49.832;10.746;2023-04-25T16:20:50;10.70;29.50
8633;DHT22;4354;49.832;10.746;2023-04-25T16:23:17;10.60;31.50